Time;durP1;ratioP1;P1;durP2;ratioP2;P2;SDS_P1;SDS_P2;PMS_P1;PMS_P2;Temp;Humidity;BMP_temperature;BMP_pressure;BME280_temperature;BME280_humidity;BME280_pressure;Samples;Min_cycle;Max_cycle;Signal;HPM_P1;HPM_P2
2022/04/06 00:00:22;;;;;;;1.05;0.50;;;;;;;26.58;28.19;95927.41;4886956;29;20031;-31
2022/04/06 00:02:47;;;;;;;1.40;0.57;;;;;;;26.58;28.03;95922.13;4888602;28;20058;-30
2022/04/06 00:05:13;;;;;;;0.40;0.40;;;;;;;26.58;28.12;95927.41;4887277;29;20486;-31
2022/04/06 00:07:39;;;;;;;0.55;0.35;;;;;;;26.58;28.11;95922.13;4899321;29;20035;-30
2022/04/06 00:10:05;;;;;;;1.05;0.65;;;;;;;26.58;28.10;95922.13;4899112;28;20167;-31
2022/04/06 00:12:30;;;;;;;0.30;0.30;;;;;;;26.58;28.20;95916.88;4902977;29;20871;-29
2022/04/06 00:14:55;;;;;;;1.33;0.60;;;;;;;26.58;28.15;95914.25;4904720;29;20031;-29
2022/04/06 00:17:21;;;;;;;0.68;0.57;;;;;;;26.58;27.96;95916.06;4905550;29;20032;-30
2022/04/06 00:19:46;;;;;;;0.73;0.40;;;;;;;26.58;28.04;95913.44;4905165;29;20083;-29
2022/04/06 00:22:12;;;;;;;0.30;0.30;;;;;;;26.57;28.05;95907.34;4903045;28;20032;-31
2022/04/06 00:24:37;;;;;;;1.45;0.52;;;;;;;26.57;28.24;95909.97;4907146;28;20663;-29
2022/04/06 00:27:03;;;;;;;1.98;0.60;;;;;;;26.56;28.14;95905.66;4909407;29;20055;-32
2022/04/06 00:29:28;;;;;;;0.50;0.40;;;;;;;26.56;28.20;95903.03;4910221;29;20035;-30
2022/04/06 00:31:54;;;;;;;1.75;0.57;;;;;;;26.56;28.07;95897.78;4910383;28;20549;-29
2022/04/06 00:34:19;;;;;;;0.68;0.40;;;;;;;26.56;28.03;95895.16;4908246;29;20031;-30
2022/04/06 00:36:45;;;;;;;0.75;0.50;;;;;;;26.56;28.05;95897.78;4906069;29;20039;-30
2022/04/06 00:39:11;;;;;;;1.45;0.50;;;;;;;26.56;28.12;95884.63;4909245;29;20055;-29
2022/04/06 00:41:38;;;;;;;0.70;0.30;;;;;;;26.55;28.14;95890.81;4906332;29;20623;-31
2022/04/06 00:44:14;;;;;;;2.20;0.47;;;;;;;26.55;28.16;95890.81;4904761;29;20455;-29
2022/04/06 00:46:40;;;;;;;0.70;0.40;;;;;;;26.56;28.04;95891.66;4905200;29;20113;-33
2022/04/06 00:49:11;;;;;;;0.68;0.40;;;;;;;26.55;28.03;95890.81;4914643;29;20582;-33
2022/04/06 00:51:37;;;;;;;0.90;0.40;;;;;;;26.55;27.99;95890.00;4914942;29;20114;-32
2022/04/06 00:54:02;;;;;;;0.80;0.43;;;;;;;26.54;28.09;95889.16;4909846;29;20044;-29
2022/04/06 00:56:27;;;;;;;0.50;0.32;;;;;;;26.54;28.05;95883.06;4927794;28;20023;-30
2022/04/06 00:58:53;;;;;;;0.90;0.50;;;;;;;26.53;28.17;95876.97;4923485;28;20036;-29
2022/04/06 01:01:18;;;;;;;0.45;0.40;;;;;;;26.54;28.27;95872.56;4928694;28;20423;-30
2022/04/06 01:03:44;;;;;;;0.38;0.38;;;;;;;26.50;28.08;95866.66;4907193;29;20685;-28
2022/04/06 01:06:09;;;;;;;0.52;0.50;;;;;;;26.53;28.12;95870.84;4896582;28;20047;-31
2022/04/06 01:08:35;;;;;;;1.25;0.60;;;;;;;26.54;28.06;95873.38;4879027;29;20047;-30
2022/04/06 01:11:00;;;;;;;0.30;0.30;;;;;;;26.53;28.14;95871.72;4878602;29;20133;-29
2022/04/06 01:13:26;;;;;;;1.52;0.40;;;;;;;26.54;28.16;95872.56;4877695;29;20040;-29
2022/04/06 01:15:52;;;;;;;0.63;0.60;;;;;;;26.53;28.18;95869.09;4903773;28;20035;-27
2022/04/06 01:18:17;;;;;;;0.47;0.40;;;;;;;26.52;27.97;95864.78;4877278;28;20031;-31
2022/04/06 01:20:42;;;;;;;0.45;0.45;;;;;;;26.53;28.13;95862.97;4883743;29;20247;-29
2022/04/06 01:23:08;;;;;;;0.73;0.40;;;;;;;26.52;28.16;95862.16;4880428;29;20032;-31
2022/04/06 01:25:38;;;;;;;0.82;0.32;;;;;;;26.51;28.22;95863.09;4878339;28;22593;-29
2022/04/06 01:28:03;;;;;;;0.38;0.38;;;;;;;26.51;28.13;95863.09;4881131;29;20684;-29
2022/04/06 01:30:29;;;;;;;0.80;0.35;;;;;;;26.53;28.03;95860.34;4875922;28;20043;-29
2022/04/06 01:32:58;;;;;;;1.00;0.40;;;;;;;26.52;28.17;95864.78;4878730;28;20099;-28
2022/04/06 01:35:24;;;;;;;0.63;0.50;;;;;;;26.53;28.10;95870.84;4878956;28;20063;-30
2022/04/06 01:37:50;;;;;;;0.43;0.40;;;;;;;26.52;28.00;95859.53;4890271;28;20028;-29
2022/04/06 01:40:15;;;;;;;0.40;0.40;;;;;;;26.51;28.13;95863.09;4878182;28;20130;-32
2022/04/06 01:42:41;;;;;;;0.45;0.30;;;;;;;26.52;28.09;95863.94;4875175;29;20106;-30
2022/04/06 01:45:07;;;;;;;2.28;0.52;;;;;;;26.51;28.07;95863.09;4874374;28;20857;-27
2022/04/06 01:47:33;;;;;;;0.40;0.40;;;;;;;26.51;28.03;95862.25;4877079;29;20070;-30
2022/04/06 01:52:42;;;;;;;0.95;0.50;;;;;;;26.50;28.09;95856.16;4876904;29;20046;-30
2022/04/06 01:55:09;;;;;;;0.40;0.40;;;;;;;26.51;28.05;95859.63;4876510;28;20039;-32
2022/04/06 01:57:35;;;;;;;0.40;0.40;;;;;;;26.50;28.02;95861.41;4872198;29;20086;-28
2022/04/06 02:00:00;;;;;;;1.05;0.38;;;;;;;26.50;28.06;95856.16;4874049;29;20044;-30
2022/04/06 02:02:28;;;;;;;0.68;0.50;;;;;;;26.50;28.04;95855.34;4873445;28;20035;-32
2022/04/06 02:04:53;;;;;;;1.88;0.50;;;;;;;26.49;28.06;95838.72;4902592;28;22156;-29
2022/04/06 02:07:18;;;;;;;0.85;0.50;;;;;;;26.48;28.04;95847.56;4897360;29;20039;-31
2022/04/06 02:09:44;;;;;;;0.98;0.50;;;;;;;26.50;27.99;95840.38;4907940;29;20040;-29
2022/04/06 02:12:10;;;;;;;0.30;0.30;;;;;;;26.48;28.10;95837.03;4913432;29;20040;-29
2022/04/06 02:14:36;;;;;;;0.30;0.30;;;;;;;26.47;28.07;95845.88;4913530;29;20146;-31
2022/04/06 02:17:03;;;;;;;0.75;0.43;;;;;;;26.48;28.10;95842.31;4922667;28;20203;-32
2022/04/06 02:19:29;;;;;;;0.55;0.35;;;;;;;26.47;28.08;95841.44;4911810;29;20055;-30
2022/04/06 02:21:54;;;;;;;0.75;0.35;;;;;;;26.48;28.09;95839.69;4943905;28;20078;-31
2022/04/06 02:24:19;;;;;;;0.40;0.40;;;;;;;26.47;28.10;95832.75;4908022;29;20058;-33
2022/04/06 02:26:45;;;;;;;0.60;0.50;;;;;;;26.47;28.04;95838.00;4907814;29;20032;-32
2022/04/06 02:29:11;;;;;;;0.70;0.30;;;;;;;26.46;28.08;95833.66;4912652;29;20039;-30
2022/04/06 02:31:37;;;;;;;0.47;0.35;;;;;;;26.46;28.11;95834.53;4912749;29;20112;-29
2022/04/06 02:34:03;;;;;;;0.93;0.40;;;;;;;26.45;28.04;95824.97;4916159;29;20057;-29
2022/04/06 02:36:28;;;;;;;0.50;0.40;;;;;;;26.46;28.10;95828.41;4907737;29;20706;-30
2022/04/06 02:38:53;;;;;;;0.40;0.40;;;;;;;26.46;28.11;95828.41;4912923;28;20040;-29
2022/04/06 02:41:19;;;;;;;1.55;0.50;;;;;;;26.45;28.06;95827.59;4909220;29;20537;-31
2022/04/06 02:43:45;;;;;;;0.50;0.50;;;;;;;26.45;28.09;95829.38;4911462;29;20082;-31
2022/04/06 02:46:10;;;;;;;0.88;0.50;;;;;;;26.45;28.04;95829.38;4907577;28;20884;-29
2022/04/06 02:48:35;;;;;;;0.70;0.50;;;;;;;26.45;28.13;95830.22;4906926;29;20573;-29
2022/04/06 02:51:01;;;;;;;0.38;0.38;;;;;;;26.44;28.17;95825.06;4910088;29;20384;-30
2022/04/06 02:53:26;;;;;;;0.40;0.30;;;;;;;26.44;28.11;95822.44;4909523;29;20028;-29
2022/04/06 02:55:52;;;;;;;0.85;0.40;;;;;;;26.45;28.07;95824.13;4913375;29;20039;-30
2022/04/06 02:58:17;;;;;;;0.77;0.40;;;;;;;26.44;28.04;95820.66;4912223;29;20031;-28
2022/04/06 03:00:42;;;;;;;0.40;0.30;;;;;;;26.44;28.22;95809.31;4910737;28;20043;-29
2022/04/06 03:03:08;;;;;;;0.73;0.40;;;;;;;26.45;28.04;95805.72;4908374;29;20180;-32
2022/04/06 03:05:33;;;;;;;1.23;0.40;;;;;;;26.43;28.23;95797.13;4904404;28;20766;-31
2022/04/06 03:07:59;;;;;;;0.82;0.47;;;;;;;26.42;28.11;95801.53;4904342;29;20035;-30
2022/04/06 03:10:24;;;;;;;0.50;0.30;;;;;;;26.43;27.99;95802.38;4905149;29;20028;-32
2022/04/06 03:12:49;;;;;;;0.80;0.40;;;;;;;26.44;28.02;95801.44;4909501;29;20042;-30
2022/04/06 03:15:15;;;;;;;0.50;0.40;;;;;;;26.43;28.01;95802.38;4908165;29;20039;-30
2022/04/06 03:17:41;;;;;;;0.30;0.30;;;;;;;26.42;28.01;95790.19;4899004;29;20044;-33
2022/04/06 03:20:08;;;;;;;1.02;0.57;;;;;;;26.42;28.13;95790.19;4908660;29;20064;-29
2022/04/06 03:22:34;;;;;;;0.40;0.40;;;;;;;26.42;28.07;95792.81;4908763;28;20052;-32
2022/04/06 03:24:59;;;;;;;0.50;0.40;;;;;;;26.41;28.09;95791.13;4904821;29;20067;-33
2022/04/06 03:27:25;;;;;;;0.77;0.20;;;;;;;26.41;28.05;95789.34;4905923;29;20024;-28
2022/04/06 03:29:50;;;;;;;0.88;0.40;;;;;;;26.41;28.06;95783.25;4900511;28;20035;-31
2022/04/06 03:32:15;;;;;;;0.52;0.35;;;;;;;26.40;28.33;95777.19;4902915;29;20593;-32
2022/04/06 03:34:41;;;;;;;0.32;0.32;;;;;;;26.40;27.89;95778.97;4904389;28;20036;-29
2022/04/06 03:37:06;;;;;;;0.50;0.50;;;;;;;26.40;28.14;95781.59;4901941;28;20036;-29
2022/04/06 03:39:32;;;;;;;1.02;0.40;;;;;;;26.40;28.14;95776.34;4905444;28;20032;-30
2022/04/06 03:41:57;;;;;;;0.57;0.30;;;;;;;26.40;27.99;95771.06;4903644;29;20130;-30
2022/04/06 03:44:23;;;;;;;1.35;0.40;;;;;;;26.39;28.18;95772.03;4904421;29;20035;-32
2022/04/06 03:46:48;;;;;;;0.50;0.30;;;;;;;26.39;28.18;95774.66;4921206;28;20040;-29
2022/04/06 03:49:14;;;;;;;0.40;0.38;;;;;;;26.38;28.11;95771.19;4911771;29;20039;-30
2022/04/06 03:51:39;;;;;;;0.30;0.30;;;;;;;26.38;28.16;95768.56;4911636;28;20107;-30
2022/04/06 03:54:05;;;;;;;0.32;0.32;;;;;;;26.37;28.11;95763.41;4911346;28;20103;-30
2022/04/06 03:56:30;;;;;;;0.30;0.30;;;;;;;26.38;28.12;95762.47;4912700;29;20043;-30
2022/04/06 03:58:55;;;;;;;0.47;0.40;;;;;;;26.37;28.13;95771.28;4910084;29;20028;-29
2022/04/06 04:01:21;;;;;;;0.20;0.20;;;;;;;26.38;28.07;95765.09;4910750;29;20032;-28
2022/04/06 04:03:46;;;;;;;0.90;0.40;;;;;;;26.37;28.06;95764.25;4913383;28;20464;-31
2022/04/06 04:06:11;;;;;;;0.70;0.50;;;;;;;26.37;28.12;95760.78;4908536;28;20032;-32
2022/04/06 04:08:37;;;;;;;0.57;0.40;;;;;;;26.37;28.16;95760.78;4912454;29;20031;-29
2022/04/06 04:11:02;;;;;;;0.60;0.50;;;;;;;26.37;28.13;95761.63;4909790;29;20028;-29
2022/04/06 04:13:28;;;;;;;0.80;0.40;;;;;;;26.36;28.06;95767.84;4911325;29;20039;-29
2022/04/06 04:15:53;;;;;;;0.60;0.30;;;;;;;26.35;28.18;95764.38;4908520;28;20043;-31
2022/04/06 04:18:19;;;;;;;0.47;0.47;;;;;;;26.36;28.15;95754.72;4905451;29;20032;-31
2022/04/06 04:20:45;;;;;;;0.25;0.25;;;;;;;26.36;28.18;95762.59;4903738;28;20032;-30
2022/04/06 04:23:13;;;;;;;0.40;0.40;;;;;;;26.35;28.31;95759.13;4908513;29;20100;-33
2022/04/06 04:25:39;;;;;;;0.95;0.43;;;;;;;26.37;28.16;95747.66;4906641;29;20035;-31
2022/04/06 04:28:05;;;;;;;1.15;0.40;;;;;;;26.35;28.13;95753.84;4909360;28;20091;-29
2022/04/06 04:30:30;;;;;;;1.40;0.50;;;;;;;26.35;28.07;95748.59;4909131;28;20076;-29
2022/04/06 04:32:56;;;;;;;0.30;0.30;;;;;;;26.34;28.08;95746.09;4907998;29;20032;-32
2022/04/06 04:35:21;;;;;;;6.90;1.10;;;;;;;26.35;28.07;95748.59;4908209;29;20470;-31
2022/04/06 04:37:47;;;;;;;9.98;1.27;;;;;;;26.34;28.20;95746.94;4912491;29;20032;-31
2022/04/06 04:40:12;;;;;;;4.88;0.57;;;;;;;26.33;28.37;95745.25;4911003;28;20079;-30
2022/04/06 04:42:38;;;;;;;0.55;0.50;;;;;;;26.33;28.20;95749.66;4907079;29;20035;-29
2022/04/06 04:45:04;;;;;;;11.93;0.63;;;;;;;26.33;28.29;95747.03;4910266;29;20102;-30
2022/04/06 04:47:30;;;;;;;4.05;0.68;;;;;;;26.32;28.32;95740.94;4908151;29;20062;-31
2022/04/06 04:49:57;;;;;;;1.00;0.50;;;;;;;26.31;28.29;95736.63;4915688;29;20019;-30
2022/04/06 04:52:22;;;;;;;2.25;0.30;;;;;;;26.31;28.26;95741.91;4905713;29;20513;-30
2022/04/06 04:54:48;;;;;;;0.90;0.45;;;;;;;26.30;28.28;95740.22;4908432;29;20020;-30
2022/04/06 04:57:13;;;;;;;1.38;0.35;;;;;;;26.31;28.16;95743.69;4909827;28;20039;-31
2022/04/06 04:59:38;;;;;;;0.77;0.40;;;;;;;26.30;28.23;95740.22;4912072;29;20178;-30
2022/04/06 05:02:04;;;;;;;0.22;0.20;;;;;;;26.30;28.28;95734.97;4915261;29;20109;-32
2022/04/06 05:04:29;;;;;;;0.85;0.40;;;;;;;26.31;28.29;95735.81;4913757;29;20039;-31
2022/04/06 05:06:55;;;;;;;1.35;0.40;;;;;;;26.31;28.25;95735.81;4914450;29;20038;-28
2022/04/06 05:09:20;;;;;;;0.63;0.40;;;;;;;26.29;28.24;95733.31;4912177;28;20432;-31
2022/04/06 05:11:47;;;;;;;0.40;0.40;;;;;;;26.29;28.06;95735.94;4907079;29;20020;-29
2022/04/06 05:14:13;;;;;;;0.45;0.40;;;;;;;26.30;28.30;95736.75;4908836;28;20119;-29
2022/04/06 05:16:38;;;;;;;0.30;0.30;;;;;;;26.29;28.39;95738.56;4909618;29;20047;-29
2022/04/06 05:19:04;;;;;;;0.20;0.20;;;;;;;26.29;28.32;95738.56;4913412;28;20794;-29
2022/04/06 05:21:29;;;;;;;1.23;0.30;;;;;;;26.29;28.23;95737.69;4912633;29;20091;-28
2022/04/06 05:23:56;;;;;;;1.55;0.40;;;;;;;26.29;28.20;95735.06;4910921;29;20039;-29
2022/04/06 05:26:21;;;;;;;0.95;0.30;;;;;;;26.29;28.29;95732.44;4905996;29;20031;-29
2022/04/06 05:28:47;;;;;;;0.63;0.40;;;;;;;26.29;28.32;95732.44;4910987;29;20028;-31
2022/04/06 05:31:12;;;;;;;0.65;0.35;;;;;;;26.28;28.17;95734.22;4916097;29;20467;-28
2022/04/06 05:33:38;;;;;;;0.30;0.30;;;;;;;26.29;28.31;95733.31;4914245;29;20036;-28
2022/04/06 05:36:03;;;;;;;0.32;0.32;;;;;;;26.28;28.19;95731.59;4906518;29;20028;-29
2022/04/06 05:38:30;;;;;;;0.30;0.30;;;;;;;26.28;28.30;95731.59;4908813;29;20024;-30
2022/04/06 05:40:56;;;;;;;0.73;0.40;;;;;;;26.28;28.19;95726.34;4906396;29;20031;-29
2022/04/06 05:43:21;;;;;;;1.13;0.30;;;;;;;26.29;28.21;95732.44;4905878;28;20035;-30
2022/04/06 05:45:47;;;;;;;0.50;0.40;;;;;;;26.28;28.28;95730.78;4903627;28;20111;-33
2022/04/06 05:48:12;;;;;;;0.80;0.50;;;;;;;26.29;28.17;95732.44;4913954;29;20036;-27
2022/04/06 05:50:38;;;;;;;1.02;0.50;;;;;;;26.28;28.30;95731.59;4907760;29;20024;-28
2022/04/06 05:53:04;;;;;;;2.45;0.52;;;;;;;26.27;28.30;95740.44;4908466;29;20487;-30
2022/04/06 05:55:29;;;;;;;2.33;0.40;;;;;;;26.28;28.33;95731.59;4909697;28;20023;-30
2022/04/06 05:57:55;;;;;;;0.30;0.30;;;;;;;26.29;28.15;95742.94;4909875;29;20032;-31
2022/04/06 06:00:20;;;;;;;0.45;0.30;;;;;;;26.28;28.16;95742.09;4908335;28;20901;-30
2022/04/06 06:02:45;;;;;;;0.43;0.43;;;;;;;26.28;28.05;95734.22;4911943;29;20940;-29
2022/04/06 06:05:11;;;;;;;0.55;0.43;;;;;;;26.27;28.15;95729.94;4910748;29;20072;-29
2022/04/06 06:07:37;;;;;;;0.75;0.52;;;;;;;26.27;28.12;95735.19;4932957;28;20044;-31
2022/04/06 06:10:03;;;;;;;0.90;0.60;;;;;;;26.27;28.31;95732.56;4910149;28;20044;-29
2022/04/06 06:12:29;;;;;;;0.75;0.30;;;;;;;26.27;28.25;95737.81;4909938;29;20027;-29
2022/04/06 06:14:54;;;;;;;0.65;0.40;;;;;;;26.25;28.20;95731.81;4909602;29;20059;-31
2022/04/06 06:17:20;;;;;;;1.10;0.55;;;;;;;26.27;28.23;95734.38;4907334;29;20036;-30
2022/04/06 06:19:45;;;;;;;1.70;0.50;;;;;;;26.26;28.23;95733.50;4910414;29;20773;-28
2022/04/06 06:22:11;;;;;;;1.25;0.55;;;;;;;26.27;28.10;95740.44;4910488;29;20044;-31
2022/04/06 06:24:36;;;;;;;0.75;0.50;;;;;;;26.26;28.31;95733.50;4913321;29;20040;-31
2022/04/06 06:27:02;;;;;;;0.93;0.60;;;;;;;26.26;28.13;95730.88;4911604;29;20036;-29
2022/04/06 06:29:27;;;;;;;4.80;0.88;;;;;;;26.26;28.12;95733.50;4910072;29;20844;-29
2022/04/06 06:31:54;;;;;;;2.72;0.95;;;;;;;26.27;28.02;95737.00;4900899;29;21967;-31
2022/04/06 06:34:19;;;;;;;5.32;1.25;;;;;;;26.27;28.02;95737.00;4904419;29;20066;-31
2022/04/06 06:36:44;;;;;;;2.17;1.10;;;;;;;26.26;28.03;95730.88;4899689;29;20032;-29
2022/04/06 06:39:10;;;;;;;4.28;1.40;;;;;;;26.26;28.11;95735.28;4904031;29;21041;-32
2022/04/06 06:41:35;;;;;;;3.17;1.52;;;;;;;26.26;28.19;95733.50;4901458;29;20063;-30
2022/04/06 06:44:01;;;;;;;5.15;1.92;;;;;;;26.26;28.30;95738.75;4900187;29;20047;-30
2022/04/06 06:46:27;;;;;;;10.38;1.70;;;;;;;26.25;28.14;95731.81;4917391;28;20051;-31
2022/04/06 06:48:54;;;;;;;4.88;1.70;;;;;;;26.26;28.10;95741.38;4900970;29;20118;-30
2022/04/06 06:51:19;;;;;;;4.53;2.00;;;;;;;26.26;28.29;95736.13;4906626;28;20555;-28
2022/04/06 06:53:44;;;;;;;8.65;1.83;;;;;;;26.27;28.24;95739.63;4906158;29;20028;-29
2022/04/06 06:56:10;;;;;;;7.60;1.90;;;;;;;26.26;28.15;95738.75;4912480;28;20036;-30
2022/04/06 06:58:35;;;;;;;5.18;1.60;;;;;;;26.26;28.11;95738.75;4909489;29;20215;-35
2022/04/06 07:01:01;;;;;;;5.32;1.33;;;;;;;26.26;28.22;95737.91;4912933;29;20652;-31
2022/04/06 07:03:26;;;;;;;6.35;1.70;;;;;;;26.26;28.22;95736.13;4910997;29;20039;-30
2022/04/06 07:05:52;;;;;;;6.50;1.77;;;;;;;26.27;28.28;95734.38;4912768;29;20090;-30
2022/04/06 07:08:17;;;;;;;5.47;1.75;;;;;;;26.26;28.30;95733.50;4914470;29;20032;-32
2022/04/06 07:10:46;;;;;;;6.80;2.08;;;;;;;26.27;28.12;95737.81;4910744;29;20036;-32
2022/04/06 07:13:12;;;;;;;2.72;1.30;;;;;;;26.27;28.31;95732.56;4908820;29;20036;-29
2022/04/06 07:15:41;;;;;;;4.00;1.77;;;;;;;26.26;28.09;95733.50;4925538;28;20028;-32
2022/04/06 07:18:08;;;;;;;3.78;1.63;;;;;;;26.27;28.20;95727.31;4914217;29;20032;-29
2022/04/06 07:20:35;;;;;;;4.05;1.70;;;;;;;26.27;28.26;95724.69;4912329;29;20028;-30
2022/04/06 07:23:01;;;;;;;3.60;1.70;;;;;;;26.27;28.11;95724.69;4909428;29;20111;-31
2022/04/06 07:25:27;;;;;;;5.65;1.63;;;;;;;26.27;28.22;95714.16;4909649;29;20023;-33
2022/04/06 07:27:52;;;;;;;5.40;1.90;;;;;;;26.27;28.14;95724.69;4903928;29;20087;-30
2022/04/06 07:30:17;;;;;;;4.18;1.50;;;;;;;26.27;28.13;95713.34;4901247;29;20040;-33
2022/04/06 07:32:43;;;;;;;4.10;1.52;;;;;;;26.27;28.07;95718.59;4900516;29;20044;-33
2022/04/06 07:35:08;;;;;;;6.57;2.42;;;;;;;26.27;28.03;95716.81;4902525;29;20648;-31
2022/04/06 07:37:41;;;;;;;8.63;1.90;;;;;;;26.26;28.10;95720.38;4902974;29;20046;-30
2022/04/06 07:40:08;;;;;;;6.55;1.90;;;;;;;26.27;28.15;95713.34;4902523;29;20039;-30
2022/04/06 07:42:35;;;;;;;9.95;1.75;;;;;;;26.27;28.18;95716.81;4904423;29;20032;-32
2022/04/06 07:45:17;;;;;;;5.30;1.80;;;;;;;26.25;28.20;95713.44;4907684;28;20043;-33
2022/04/06 07:47:42;;;;;;;;;;;;;;;26.26;28.15;95715.13;4901464;28;20636;-31
2022/04/06 07:50:08;;;;;;;3.63;1.60;;;;;;;26.27;28.22;95715.97;4904112;29;20021;-32
2022/04/06 07:52:33;;;;;;;5.57;1.70;;;;;;;26.27;28.23;95718.59;4915467;28;20036;-31
2022/04/06 07:54:59;;;;;;;4.60;1.83;;;;;;;26.25;28.24;95709.94;4900779;28;20559;-38
2022/04/06 07:57:25;;;;;;;4.07;1.90;;;;;;;26.27;28.21;95713.34;4899531;28;20029;-30
2022/04/06 07:59:54;;;;;;;4.18;1.67;;;;;;;26.25;28.36;95708.19;4904343;29;20242;-30
2022/04/06 08:02:19;;;;;;;4.00;1.70;;;;;;;26.27;28.26;95713.34;4900786;29;20031;-30
2022/04/06 08:04:45;;;;;;;4.30;1.70;;;;;;;26.27;28.24;95714.16;4904583;29;20031;-31
2022/04/06 08:07:10;;;;;;;3.50;1.83;;;;;;;26.28;28.42;95721.09;4920467;28;20028;-31
2022/04/06 08:09:35;;;;;;;6.05;2.10;;;;;;;26.28;28.43;95715.03;4904215;28;20509;-30
2022/04/06 08:12:01;;;;;;;17.15;1.50;;;;;;;26.27;27.97;95718.59;4900648;29;20075;-29
2022/04/06 08:14:27;;;;;;;8.32;1.10;;;;;;;26.20;27.25;95712.94;4901618;29;20590;-30
2022/04/06 08:16:55;;;;;;;2.22;0.85;;;;;;;26.07;26.93;95719.06;4900435;29;20036;-29
2022/04/06 08:19:21;;;;;;;2.60;0.73;;;;;;;25.93;26.71;95713.94;4899886;29;20119;-31
2022/04/06 08:21:46;;;;;;;0.73;0.50;;;;;;;25.76;26.49;95715.97;4900599;29;20478;-30
2022/04/06 08:24:12;;;;;;;3.65;0.70;;;;;;;25.60;26.43;95716.19;4905148;29;20044;-33
2022/04/06 08:26:38;;;;;;;3.55;0.70;;;;;;;25.45;26.61;95713.66;4904126;29;20086;-28
2022/04/06 08:29:03;;;;;;;0.52;0.50;;;;;;;25.36;26.77;95711.66;4901503;29;20031;-30
2022/04/06 08:31:28;;;;;;;1.35;0.60;;;;;;;25.33;26.97;95708.41;4895152;29;20027;-30
2022/04/06 08:33:54;;;;;;;0.60;0.43;;;;;;;25.31;26.90;95716.38;4902085;29;20028;-28
2022/04/06 08:36:19;;;;;;;1.38;0.50;;;;;;;25.31;26.92;95706.75;4902175;29;20032;-29
2022/04/06 08:38:45;;;;;;;0.88;0.60;;;;;;;25.35;27.09;95709.16;4900769;28;20028;-29
2022/04/06 08:41:10;;;;;;;0.93;0.40;;;;;;;25.39;26.79;95713.22;4899995;29;20746;-30
2022/04/06 08:43:36;;;;;;;2.08;0.50;;;;;;;25.44;27.05;95716.41;4921000;28;20036;-30
2022/04/06 08:46:02;;;;;;;1.52;0.50;;;;;;;25.48;27.23;95701.28;4920335;28;20366;-33
2022/04/06 08:48:31;;;;;;;2.78;0.68;;;;;;;25.52;27.12;95708.81;4902214;28;20047;-34
2022/04/06 08:51:00;;;;;;;1.83;0.60;;;;;;;25.56;26.97;95705.06;4900678;29;20756;-31
2022/04/06 08:53:25;;;;;;;3.90;0.82;;;;;;;25.61;27.07;95706.53;4914874;28;20040;-31
2022/04/06 08:55:51;;;;;;;3.95;1.08;;;;;;;25.64;27.08;95703.69;4901909;28;20024;-30
2022/04/06 08:58:16;;;;;;;8.15;1.55;;;;;;;25.70;27.19;95705.88;4903252;29;20039;-37
2022/04/06 09:00:42;;;;;;;12.57;3.10;;;;;;;25.73;27.17;95700.44;4895239;29;20494;-31
2022/04/06 09:03:07;;;;;;;10.38;2.83;;;;;;;25.76;27.22;95705.47;4902303;29;20031;-30
2022/04/06 09:05:34;;;;;;;14.90;3.00;;;;;;;25.79;27.20;95700.03;4904683;29;20028;-28
2022/04/06 09:08:02;;;;;;;9.15;2.53;;;;;;;25.82;27.23;95705.03;4906568;28;20028;-29
2022/04/06 09:10:33;;;;;;;14.48;3.08;;;;;;;25.86;27.34;95700.44;4904242;29;20048;-27
2022/04/06 09:13:14;;;;;;;14.30;3.40;;;;;;;25.89;27.31;95704.63;4904795;28;20613;-29
2022/04/06 09:15:39;;;;;;;13.13;2.70;;;;;;;25.92;27.30;95693.88;4906913;28;20094;-30
2022/04/06 09:18:05;;;;;;;15.95;3.30;;;;;;;25.94;27.29;95692.00;4906124;29;20040;-30
2022/04/06 09:20:31;;;;;;;13.45;3.20;;;;;;;25.96;27.28;95701.44;4906400;29;20808;-28
2022/04/06 09:23:02;;;;;;;17.17;3.45;;;;;;;26.00;27.41;95702.06;4907776;28;20107;-29
2022/04/06 09:25:38;;;;;;;13.87;3.20;;;;;;;26.00;27.53;95696.81;4907935;29;20032;-30
2022/04/06 09:28:16;;;;;;;16.58;3.55;;;;;;;26.03;27.44;95696.59;4906464;28;20783;-30
2022/04/06 09:30:43;;;;;;;9.63;3.00;;;;;;;26.05;27.53;95705.19;4904465;29;20123;-29
2022/04/06 09:33:15;;;;;;;12.95;3.55;;;;;;;26.07;27.63;95697.19;4903199;29;20040;-31
2022/04/06 09:35:41;;;;;;;8.75;3.08;;;;;;;26.08;27.56;95699.72;4911302;28;20462;-29
2022/04/06 09:38:22;;;;;;;13.40;3.38;;;;;;;26.09;27.39;95696.13;4905666;29;20080;-30
2022/04/06 09:40:59;;;;;;;14.57;3.50;;;;;;;26.13;27.48;95701.19;4909519;29;20118;-28
2022/04/06 09:43:29;;;;;;;21.48;3.38;;;;;;;26.13;27.40;95688.91;4904759;29;20039;-29
2022/04/06 09:49:19;;;;;;;12.95;2.92;;;;;;;26.17;27.60;95692.13;4904762;29;20039;-29
2022/04/06 09:51:51;;;;;;;13.15;3.30;;;;;;;26.17;27.68;95686.88;4904587;29;20036;-32
2022/04/06 09:54:17;;;;;;;16.45;2.65;;;;;;;26.18;27.59;95683.28;4902820;29;20166;-27
2022/04/06 09:56:42;;;;;;;9.27;3.28;;;;;;;26.19;27.58;95684.97;4905684;29;20035;-28
2022/04/06 09:59:09;;;;;;;13.35;3.00;;;;;;;26.20;27.75;95681.41;4908640;28;20745;-29
2022/04/06 10:01:35;;;;;;;14.98;3.22;;;;;;;26.21;27.72;95678.66;4906337;29;20055;-29
2022/04/06 10:04:03;;;;;;;11.35;2.75;;;;;;;26.21;27.85;95668.16;4905595;29;20764;-30
2022/04/06 10:06:31;;;;;;;7.50;2.95;;;;;;;26.23;27.58;95675.91;4904536;29;20095;-32
2022/04/06 10:08:56;;;;;;;6.63;2.65;;;;;;;26.24;27.77;95667.13;4905737;29;20904;-31
2022/04/06 10:11:22;;;;;;;8.60;2.67;;;;;;;26.26;27.68;95667.00;4903725;29;20032;-30
2022/04/06 10:13:47;;;;;;;8.82;2.42;;;;;;;26.28;27.84;95657.25;4918613;28;20042;-31
2022/04/06 10:16:13;;;;;;;7.72;2.40;;;;;;;26.31;27.65;95651.78;4896740;29;20043;-32
2022/04/06 10:18:38;;;;;;;7.45;2.35;;;;;;;26.31;27.74;95642.09;4898534;29;20039;-30
2022/04/06 10:21:22;;;;;;;8.10;2.53;;;;;;;26.33;27.70;95645.47;4918837;28;20040;-30
2022/04/06 10:23:55;;;;;;;5.78;2.15;;;;;;;26.34;27.85;95641.88;4902251;29;20044;-31
2022/04/06 10:26:39;;;;;;;6.07;2.40;;;;;;;26.35;27.75;95633.03;4919083;28;20032;-28
2022/04/06 10:29:05;;;;;;;6.28;2.45;;;;;;;26.37;27.78;95634.72;4901593;28;20409;-30
2022/04/06 10:31:31;;;;;;;6.85;2.13;;;;;;;26.38;27.87;95633.78;4904783;29;20036;-30
2022/04/06 10:34:22;;;;;;;7.93;2.33;;;;;;;26.38;27.84;95631.97;4900375;28;20040;-31
2022/04/06 10:37:06;;;;;;;5.93;2.00;;;;;;;26.38;27.92;95631.16;4903679;29;20039;-31
2022/04/06 10:39:55;;;;;;;7.03;2.15;;;;;;;26.38;27.94;95621.47;4902444;28;20044;-29
2022/04/06 10:42:37;;;;;;;5.43;1.98;;;;;;;26.40;27.88;95631.84;4901031;29;20032;-31
2022/04/06 10:45:04;;;;;;;2.63;1.10;;;;;;;26.41;27.84;95623.03;4917991;28;20538;-30
2022/04/06 10:47:32;;;;;;;3.00;1.50;;;;;;;26.41;27.72;95620.41;4901691;28;20038;-29
2022/04/06 10:50:15;;;;;;;10.80;1.65;;;;;;;26.43;27.65;95618.50;4908703;29;20561;-29
2022/04/06 10:52:41;;;;;;;6.88;1.88;;;;;;;26.41;27.73;95620.41;4903892;29;20040;-30
2022/04/06 10:55:09;;;;;;;8.43;1.67;;;;;;;26.42;27.85;95608.94;4904316;29;20055;-30
2022/04/06 10:57:56;;;;;;;5.28;1.98;;;;;;;26.43;27.78;95608.81;4898427;29;20028;-28
2022/04/06 11:00:22;;;;;;;10.13;2.55;;;;;;;26.44;27.87;95599.16;4903761;29;20031;-33
2022/04/06 11:02:50;;;;;;;5.53;2.20;;;;;;;26.43;27.93;95592.25;4903059;28;20481;-30
2022/04/06 11:05:43;;;;;;;5.55;1.77;;;;;;;26.46;27.77;95587.59;4906276;29;20031;-30
2022/04/06 11:11:32;;;;;;;8.10;2.00;;;;;;;26.48;27.83;95575.16;4910819;29;20400;-28
2022/04/06 11:13:57;;;;;;;5.93;1.90;;;;;;;26.51;27.83;95582.00;4910699;29;20024;-33
2022/04/06 11:16:42;;;;;;;7.15;2.05;;;;;;;26.51;27.94;95579.38;4915812;29;20554;-31
2022/04/06 11:19:08;;;;;;;5.75;1.83;;;;;;;26.52;27.99;95569.69;4925255;28;20044;-29
2022/04/06 11:21:34;;;;;;;5.85;1.92;;;;;;;26.52;27.88;95559.19;4942114;28;20023;-28
2022/04/06 11:23:59;;;;;;;5.15;1.83;;;;;;;26.52;27.94;95565.28;4944210;28;20031;-29
2022/04/06 11:26:27;;;;;;;4.10;1.60;;;;;;;26.53;27.98;95561.69;4929635;28;20402;-30
2022/04/06 11:28:57;;;;;;;9.90;2.00;;;;;;;26.55;27.85;95564.22;4929745;28;20027;-31
2022/04/06 11:31:23;;;;;;;8.70;2.08;;;;;;;26.55;27.99;95554.50;4931439;28;20549;-30
2022/04/06 11:33:48;;;;;;;3.90;1.63;;;;;;;26.56;27.92;95550.97;4932914;28;20086;-30
2022/04/06 11:36:15;;;;;;;5.70;2.00;;;;;;;26.57;28.01;95549.16;4928515;28;20031;-29
2022/04/06 11:38:41;;;;;;;9.82;1.67;;;;;;;26.58;27.99;95541.16;4930005;28;20036;-29
2022/04/06 11:41:06;;;;;;;6.22;2.00;;;;;;;26.60;27.88;95552.41;4923061;28;20548;-33